AFL1358 UWSG-UUEE
Flight info
| Callsign | AFL1358 |
|---|---|
| Flight time | 1h 28m |
| Altitude | 38000 |
| Route | SOKUR1K SOKUR T661 GEKPA L736 OLOPI OLOPI3G |
| Aircraft | B738/M-SDE2E3FGHIRWXY/LB1 |
Departure
| Time | 2026-05-07 17:06 |
|---|---|
| Airport | Gagarin International Airport (UWSG) |
Arrival
| Time | 2026-05-07 18:35 |
|---|---|
| Airport | Sheremetyevo International Airport (UUEE) |
| Time | Latitude | Longitude | Altitude | Speed | Heading |
|---|---|---|---|---|---|
| 2026-05-07 16:37 | 51.71692 | 46.17035 | 103 ft | 0 kts | 2° |
| 2026-05-07 16:56 | 51.71681 | 46.17034 | 103 ft | 3 kts | 2° |
| 2026-05-07 16:56 | 51.71643 | 46.17027 | 102 ft | 3 kts | 16° |
| 2026-05-07 16:57 | 51.71624 | 46.17017 | 101 ft | 2 kts | 19° |
| 2026-05-07 16:57 | 51.71618 | 46.17014 | 101 ft | 0 kts | 19° |
| 2026-05-07 17:00 | 51.71621 | 46.17016 | 101 ft | 2 kts | 25° |
| 2026-05-07 17:00 | 51.71632 | 46.17059 | 102 ft | 7 kts | 91° |
| 2026-05-07 17:00 | 51.71630 | 46.17159 | 104 ft | 9 kts | 92° |
| 2026-05-07 17:00 | 51.71628 | 46.17260 | 104 ft | 9 kts | 91° |
| 2026-05-07 17:01 | 51.71626 | 46.17360 | 104 ft | 9 kts | 96° |
| 2026-05-07 17:01 | 51.71590 | 46.17425 | 105 ft | 9 kts | 172° |
| 2026-05-07 17:01 | 51.71531 | 46.17424 | 105 ft | 8 kts | 181° |
| 2026-05-07 17:01 | 51.71474 | 46.17421 | 105 ft | 8 kts | 182° |
| 2026-05-07 17:02 | 51.71415 | 46.17417 | 105 ft | 10 kts | 182° |
| 2026-05-07 17:02 | 51.71335 | 46.17412 | 106 ft | 13 kts | 182° |
| 2026-05-07 17:02 | 51.71261 | 46.17463 | 105 ft | 13 kts | 109° |
| 2026-05-07 17:02 | 51.71253 | 46.17603 | 106 ft | 13 kts | 92° |
| 2026-05-07 17:03 | 51.71250 | 46.17766 | 108 ft | 17 kts | 92° |
| 2026-05-07 17:03 | 51.71245 | 46.17994 | 106 ft | 22 kts | 92° |
| 2026-05-07 17:03 | 51.71238 | 46.18247 | 106 ft | 22 kts | 92° |
| 2026-05-07 17:03 | 51.71232 | 46.18494 | 106 ft | 22 kts | 92° |
| 2026-05-07 17:04 | 51.71226 | 46.18735 | 108 ft | 21 kts | 92° |
| 2026-05-07 17:04 | 51.71221 | 46.18965 | 111 ft | 20 kts | 92° |
| 2026-05-07 17:04 | 51.71242 | 46.19161 | 110 ft | 14 kts | 67° |
| 2026-05-07 17:04 | 51.71221 | 46.19246 | 111 ft | 4 kts | 200° |
| 2026-05-07 17:05 | 51.71215 | 46.19196 | 112 ft | 5 kts | 274° |
| 2026-05-07 17:05 | 51.71218 | 46.19090 | 110 ft | 26 kts | 272° |
| 2026-05-07 17:05 | 51.71234 | 46.18397 | 107 ft | 96 kts | 272° |
| 2026-05-07 17:05 | 51.71271 | 46.16990 | 110 ft | 152 kts | 273° |
| 2026-05-07 17:06 | 51.71304 | 46.15187 | 589 ft | 163 kts | 272° |
| 2026-05-07 17:06 | 51.71335 | 46.13309 | 1177 ft | 173 kts | 273° |
| 2026-05-07 17:06 | 51.71376 | 46.11317 | 1818 ft | 179 kts | 274° |
| 2026-05-07 17:06 | 51.71421 | 46.09214 | 2279 ft | 202 kts | 275° |
| 2026-05-07 17:07 | 51.71479 | 46.06831 | 2515 ft | 227 kts | 274° |
| 2026-05-07 17:07 | 51.71539 | 46.04170 | 2816 ft | 246 kts | 274° |
| 2026-05-07 17:07 | 51.71817 | 46.01344 | 3070 ft | 263 kts | 296° |
| 2026-05-07 17:07 | 51.73000 | 45.99141 | 3773 ft | 262 kts | 329° |
| 2026-05-07 17:08 | 51.74595 | 45.97718 | 4659 ft | 263 kts | 334° |
| 2026-05-07 17:08 | 51.76233 | 45.96355 | 5421 ft | 268 kts | 334° |
| 2026-05-07 17:08 | 51.77914 | 45.94965 | 6208 ft | 271 kts | 334° |
| 2026-05-07 17:08 | 51.79595 | 45.93565 | 7026 ft | 272 kts | 334° |
| 2026-05-07 17:09 | 51.81281 | 45.92151 | 7836 ft | 273 kts | 334° |
| 2026-05-07 17:09 | 51.82968 | 45.90725 | 8628 ft | 275 kts | 334° |
| 2026-05-07 17:09 | 51.84678 | 45.89275 | 9439 ft | 277 kts | 334° |
| 2026-05-07 17:09 | 51.86388 | 45.87819 | 10190 ft | 279 kts | 334° |
| 2026-05-07 17:10 | 51.88118 | 45.86343 | 10910 ft | 283 kts | 334° |
| 2026-05-07 17:10 | 51.89848 | 45.84864 | 11641 ft | 285 kts | 334° |
| 2026-05-07 17:10 | 51.91616 | 45.83352 | 12393 ft | 288 kts | 334° |
| 2026-05-07 17:10 | 51.93396 | 45.81827 | 13170 ft | 291 kts | 334° |
| 2026-05-07 17:11 | 51.95201 | 45.80279 | 13932 ft | 294 kts | 334° |
| 2026-05-07 17:11 | 51.97005 | 45.78669 | 14626 ft | 299 kts | 327° |
| 2026-05-07 17:11 | 51.98452 | 45.76179 | 15216 ft | 313 kts | 304° |
| 2026-05-07 17:11 | 51.99387 | 45.72833 | 15379 ft | 338 kts | 292° |
| 2026-05-07 17:12 | 52.00180 | 45.69112 | 15541 ft | 360 kts | 290° |
| 2026-05-07 17:12 | 52.00987 | 45.65153 | 15691 ft | 380 kts | 290° |
| 2026-05-07 17:12 | 52.01837 | 45.60986 | 15938 ft | 395 kts | 290° |
| 2026-05-07 17:12 | 52.02721 | 45.56717 | 16460 ft | 401 kts | 290° |
| 2026-05-07 17:13 | 52.03624 | 45.52411 | 17127 ft | 403 kts | 291° |
| 2026-05-07 17:13 | 52.04536 | 45.48093 | 17776 ft | 406 kts | 290° |
| 2026-05-07 17:13 | 52.05462 | 45.43728 | 18362 ft | 410 kts | 290° |
| 2026-05-07 17:13 | 52.06394 | 45.39337 | 18878 ft | 414 kts | 290° |
| 2026-05-07 17:14 | 52.07338 | 45.34875 | 19412 ft | 417 kts | 290° |
| 2026-05-07 17:14 | 52.08270 | 45.30459 | 19920 ft | 420 kts | 290° |
| 2026-05-07 17:14 | 52.09222 | 45.25957 | 20430 ft | 423 kts | 290° |
| 2026-05-07 17:14 | 52.10182 | 45.21415 | 20942 ft | 426 kts | 290° |
| 2026-05-07 17:15 | 52.11149 | 45.16835 | 21433 ft | 429 kts | 290° |
| 2026-05-07 17:15 | 52.12119 | 45.12224 | 21916 ft | 432 kts | 290° |
| 2026-05-07 17:15 | 52.13095 | 45.07576 | 22378 ft | 435 kts | 290° |
| 2026-05-07 17:15 | 52.14075 | 45.02898 | 22836 ft | 438 kts | 290° |
| 2026-05-07 17:16 | 52.15061 | 44.98179 | 23284 ft | 441 kts | 290° |
| 2026-05-07 17:16 | 52.16051 | 44.93426 | 23694 ft | 444 kts | 290° |
| 2026-05-07 17:16 | 52.17048 | 44.88634 | 24073 ft | 447 kts | 290° |
| 2026-05-07 17:16 | 52.18044 | 44.83835 | 24460 ft | 449 kts | 290° |
| 2026-05-07 17:17 | 52.19154 | 44.79080 | 24821 ft | 450 kts | 297° |
| 2026-05-07 17:17 | 52.20708 | 44.74658 | 25223 ft | 449 kts | 305° |
| 2026-05-07 17:17 | 52.22663 | 44.70687 | 25607 ft | 450 kts | 314° |
| 2026-05-07 17:17 | 52.24817 | 44.66978 | 25943 ft | 452 kts | 314° |
| 2026-05-07 17:18 | 52.27003 | 44.63270 | 26248 ft | 455 kts | 315° |
| 2026-05-07 17:18 | 52.29199 | 44.59537 | 26567 ft | 457 kts | 314° |
| 2026-05-07 17:18 | 52.31402 | 44.55763 | 26892 ft | 459 kts | 314° |
| 2026-05-07 17:18 | 52.33599 | 44.51964 | 27216 ft | 461 kts | 314° |
| 2026-05-07 17:19 | 52.35799 | 44.48136 | 27517 ft | 463 kts | 314° |
| 2026-05-07 17:19 | 52.38011 | 44.44269 | 27824 ft | 464 kts | 314° |
| 2026-05-07 17:19 | 52.40180 | 44.40464 | 28265 ft | 463 kts | 314° |
| 2026-05-07 17:19 | 52.42397 | 44.36568 | 28783 ft | 460 kts | 314° |
| 2026-05-07 17:20 | 52.44549 | 44.32781 | 29248 ft | 458 kts | 314° |
| 2026-05-07 17:20 | 52.46721 | 44.28955 | 29662 ft | 458 kts | 313° |
| 2026-05-07 17:20 | 52.48893 | 44.25123 | 30042 ft | 458 kts | 313° |
| 2026-05-07 17:20 | 52.51053 | 44.21308 | 30414 ft | 456 kts | 313° |
| 2026-05-07 17:21 | 52.53214 | 44.17485 | 30778 ft | 455 kts | 313° |
| 2026-05-07 17:21 | 52.55363 | 44.13677 | 31128 ft | 455 kts | 313° |
| 2026-05-07 17:21 | 52.57513 | 44.09863 | 31436 ft | 455 kts | 313° |
| 2026-05-07 17:21 | 52.59665 | 44.06038 | 31760 ft | 454 kts | 313° |
| 2026-05-07 17:22 | 52.61810 | 44.02219 | 32118 ft | 453 kts | 313° |
| 2026-05-07 17:22 | 52.63944 | 43.98413 | 32464 ft | 452 kts | 313° |
| 2026-05-07 17:22 | 52.66075 | 43.94608 | 32786 ft | 452 kts | 313° |
| 2026-05-07 17:22 | 52.68202 | 43.90804 | 33112 ft | 451 kts | 313° |
| 2026-05-07 17:23 | 52.70328 | 43.86997 | 33445 ft | 450 kts | 313° |
| 2026-05-07 17:23 | 52.72428 | 43.83185 | 33773 ft | 449 kts | 313° |
| 2026-05-07 17:23 | 52.74521 | 43.79342 | 34067 ft | 449 kts | 312° |
| 2026-05-07 17:23 | 52.76606 | 43.75494 | 34316 ft | 449 kts | 312° |
| 2026-05-07 17:24 | 52.78683 | 43.71653 | 34562 ft | 449 kts | 312° |
| 2026-05-07 17:24 | 52.80761 | 43.67809 | 34798 ft | 449 kts | 312° |
| 2026-05-07 17:24 | 52.82842 | 43.63957 | 35049 ft | 448 kts | 312° |
| 2026-05-07 17:24 | 52.84915 | 43.60116 | 35273 ft | 448 kts | 312° |
| 2026-05-07 17:25 | 52.86967 | 43.56312 | 35507 ft | 448 kts | 312° |
| 2026-05-07 17:25 | 52.89043 | 43.52458 | 35751 ft | 448 kts | 312° |
| 2026-05-07 17:25 | 52.91112 | 43.48611 | 35980 ft | 448 kts | 311° |
| 2026-05-07 17:25 | 52.93182 | 43.44757 | 36201 ft | 447 kts | 311° |
| 2026-05-07 17:26 | 52.95243 | 43.40913 | 36454 ft | 447 kts | 311° |
| 2026-05-07 17:26 | 52.97308 | 43.37055 | 36681 ft | 446 kts | 311° |
| 2026-05-07 17:26 | 52.99369 | 43.33198 | 36878 ft | 447 kts | 311° |
| 2026-05-07 17:26 | 53.01421 | 43.29352 | 37094 ft | 446 kts | 311° |
| 2026-05-07 17:27 | 53.03485 | 43.25479 | 37323 ft | 446 kts | 311° |
| 2026-05-07 17:27 | 53.05506 | 43.21679 | 37525 ft | 446 kts | 311° |
| 2026-05-07 17:27 | 53.07553 | 43.17825 | 37709 ft | 446 kts | 311° |
| 2026-05-07 17:27 | 53.09610 | 43.13945 | 37911 ft | 446 kts | 311° |
| 2026-05-07 17:28 | 53.13731 | 43.06160 | 37945 ft | 448 kts | 311° |
| 2026-05-07 17:28 | 53.17914 | 42.98536 | 37935 ft | 444 kts | 312° |
| 2026-05-07 17:29 | 53.22070 | 42.91099 | 37938 ft | 441 kts | 312° |
| 2026-05-07 17:29 | 53.26208 | 42.83639 | 37942 ft | 439 kts | 312° |
| 2026-05-07 17:30 | 53.30336 | 42.76143 | 37952 ft | 438 kts | 311° |
| 2026-05-07 17:30 | 53.34459 | 42.68626 | 37943 ft | 439 kts | 311° |
| 2026-05-07 17:31 | 53.38537 | 42.61169 | 37943 ft | 440 kts | 311° |
| 2026-05-07 17:31 | 53.42675 | 42.53583 | 37943 ft | 441 kts | 311° |
| 2026-05-07 17:32 | 53.46063 | 42.45045 | 37942 ft | 441 kts | 294° |
| 2026-05-07 17:32 | 53.47710 | 42.36942 | 37949 ft | 442 kts | 286° |
| 2026-05-07 17:33 | 53.49596 | 42.25766 | 37942 ft | 444 kts | 285° |
| 2026-05-07 17:33 | 53.51184 | 42.16417 | 37940 ft | 445 kts | 286° |
| 2026-05-07 17:34 | 53.52864 | 42.06665 | 37935 ft | 445 kts | 286° |
| 2026-05-07 17:34 | 53.54554 | 41.96870 | 37937 ft | 445 kts | 286° |
| 2026-05-07 17:35 | 53.56272 | 41.86873 | 37941 ft | 445 kts | 286° |
| 2026-05-07 17:35 | 53.57979 | 41.76876 | 37933 ft | 444 kts | 285° |
| 2026-05-07 17:36 | 53.59672 | 41.66896 | 37932 ft | 443 kts | 285° |
| 2026-05-07 17:36 | 53.61352 | 41.56938 | 37932 ft | 442 kts | 285° |
| 2026-05-07 17:37 | 53.63002 | 41.47104 | 37930 ft | 441 kts | 285° |
| 2026-05-07 17:37 | 53.64584 | 41.37622 | 37939 ft | 440 kts | 285° |
| 2026-05-07 17:38 | 53.66101 | 41.28481 | 37934 ft | 439 kts | 285° |
| 2026-05-07 17:38 | 53.67409 | 41.20555 | 37933 ft | 438 kts | 285° |
| 2026-05-07 17:39 | 53.68962 | 41.11113 | 37930 ft | 437 kts | 285° |
| 2026-05-07 17:39 | 53.70544 | 41.01656 | 37926 ft | 437 kts | 289° |
| 2026-05-07 17:40 | 53.72896 | 40.92199 | 37930 ft | 437 kts | 294° |
| 2026-05-07 17:40 | 53.75414 | 40.82836 | 37938 ft | 437 kts | 294° |
| 2026-05-07 17:41 | 53.77846 | 40.73581 | 37928 ft | 437 kts | 293° |
| 2026-05-07 17:41 | 53.79986 | 40.65281 | 37929 ft | 437 kts | 292° |
| 2026-05-07 17:42 | 53.82196 | 40.56646 | 37931 ft | 437 kts | 292° |
| 2026-05-07 17:42 | 53.84610 | 40.47176 | 37927 ft | 437 kts | 292° |
| 2026-05-07 17:43 | 53.87008 | 40.37745 | 37940 ft | 438 kts | 292° |
| 2026-05-07 17:43 | 53.89326 | 40.28584 | 37925 ft | 438 kts | 292° |
| 2026-05-07 17:44 | 53.91701 | 40.19161 | 37923 ft | 438 kts | 292° |
| 2026-05-07 17:44 | 53.93976 | 40.10100 | 37919 ft | 438 kts | 292° |
| 2026-05-07 17:45 | 53.96304 | 40.00786 | 37922 ft | 438 kts | 292° |
| 2026-05-07 17:45 | 53.98691 | 39.91196 | 37921 ft | 438 kts | 292° |
| 2026-05-07 17:46 | 54.01040 | 39.81720 | 37921 ft | 438 kts | 292° |
| 2026-05-07 17:46 | 54.03406 | 39.72129 | 37361 ft | 443 kts | 292° |
| 2026-05-07 17:47 | 54.04592 | 39.67307 | 36796 ft | 440 kts | 292° |
| 2026-05-07 17:47 | 54.05770 | 39.62509 | 36232 ft | 437 kts | 292° |
| 2026-05-07 17:47 | 54.06942 | 39.57722 | 35604 ft | 437 kts | 292° |
| 2026-05-07 17:47 | 54.08110 | 39.52944 | 34937 ft | 437 kts | 292° |
| 2026-05-07 17:48 | 54.09276 | 39.48161 | 34286 ft | 438 kts | 292° |
| 2026-05-07 17:48 | 54.10444 | 39.43359 | 33570 ft | 439 kts | 292° |
| 2026-05-07 17:48 | 54.11613 | 39.38543 | 32798 ft | 439 kts | 292° |
| 2026-05-07 17:48 | 54.12765 | 39.33787 | 32060 ft | 440 kts | 292° |
| 2026-05-07 17:49 | 54.13930 | 39.28965 | 31303 ft | 440 kts | 292° |
| 2026-05-07 17:49 | 54.15096 | 39.24131 | 30546 ft | 441 kts | 292° |
| 2026-05-07 17:49 | 54.16264 | 39.19279 | 29716 ft | 443 kts | 292° |
| 2026-05-07 17:49 | 54.17433 | 39.14406 | 28769 ft | 444 kts | 292° |
| 2026-05-07 17:50 | 54.18577 | 39.09632 | 28680 ft | 427 kts | 292° |
| 2026-05-07 17:50 | 54.19690 | 39.04980 | 28443 ft | 415 kts | 292° |
| 2026-05-07 17:50 | 54.20762 | 39.00488 | 28265 ft | 402 kts | 292° |
| 2026-05-07 17:50 | 54.21803 | 38.96115 | 28090 ft | 396 kts | 292° |
| 2026-05-07 17:51 | 54.23033 | 38.91906 | 27906 ft | 396 kts | 306° |
| 2026-05-07 17:51 | 54.24928 | 38.88610 | 27774 ft | 385 kts | 321° |
| 2026-05-07 17:51 | 54.27208 | 38.86261 | 27588 ft | 384 kts | 331° |
| 2026-05-07 17:51 | 54.29626 | 38.84220 | 27421 ft | 392 kts | 333° |
| 2026-05-07 17:52 | 54.32102 | 38.82189 | 27212 ft | 396 kts | 333° |
| 2026-05-07 17:52 | 54.34576 | 38.80151 | 27004 ft | 393 kts | 332° |
| 2026-05-07 17:52 | 54.37029 | 38.78101 | 26813 ft | 390 kts | 332° |
| 2026-05-07 17:52 | 54.39451 | 38.76051 | 26624 ft | 388 kts | 332° |
| 2026-05-07 17:53 | 54.41868 | 38.73989 | 26445 ft | 387 kts | 332° |
| 2026-05-07 17:53 | 54.44266 | 38.71935 | 26257 ft | 385 kts | 332° |
| 2026-05-07 17:53 | 54.46642 | 38.69897 | 26081 ft | 384 kts | 331° |
| 2026-05-07 17:53 | 54.49043 | 38.67834 | 25953 ft | 386 kts | 331° |
| 2026-05-07 17:54 | 54.51447 | 38.65763 | 25909 ft | 387 kts | 331° |
| 2026-05-07 17:54 | 54.53851 | 38.63688 | 25903 ft | 387 kts | 331° |
| 2026-05-07 17:54 | 54.56264 | 38.61601 | 25900 ft | 387 kts | 331° |
| 2026-05-07 17:54 | 54.58666 | 38.59521 | 25890 ft | 387 kts | 331° |
| 2026-05-07 17:55 | 54.61074 | 38.57433 | 25894 ft | 387 kts | 331° |
| 2026-05-07 17:55 | 54.63449 | 38.55370 | 25902 ft | 387 kts | 331° |
| 2026-05-07 17:55 | 54.65851 | 38.53282 | 25902 ft | 387 kts | 331° |
| 2026-05-07 17:55 | 54.68258 | 38.51188 | 25890 ft | 387 kts | 331° |
| 2026-05-07 17:56 | 54.70661 | 38.49093 | 25896 ft | 387 kts | 331° |
| 2026-05-07 17:56 | 54.73066 | 38.46995 | 25897 ft | 387 kts | 330° |
| 2026-05-07 17:56 | 54.75471 | 38.44903 | 25844 ft | 388 kts | 331° |
| 2026-05-07 17:56 | 54.77887 | 38.42810 | 25782 ft | 388 kts | 330° |
| 2026-05-07 17:57 | 54.80296 | 38.40724 | 25723 ft | 386 kts | 330° |
| 2026-05-07 17:57 | 54.81879 | 38.39350 | 25676 ft | 386 kts | 330° |
| 2026-05-07 17:57 | 54.85093 | 38.36555 | 25598 ft | 385 kts | 330° |
| 2026-05-07 17:57 | 54.87492 | 38.34452 | 25521 ft | 385 kts | 330° |
| 2026-05-07 17:58 | 54.89886 | 38.32343 | 25465 ft | 385 kts | 330° |
| 2026-05-07 17:58 | 54.92267 | 38.30238 | 25405 ft | 385 kts | 330° |
| 2026-05-07 17:58 | 54.94658 | 38.28123 | 25350 ft | 385 kts | 330° |
| 2026-05-07 17:58 | 54.96989 | 38.26059 | 25291 ft | 384 kts | 330° |
| 2026-05-07 17:59 | 54.99375 | 38.23945 | 25230 ft | 384 kts | 330° |
| 2026-05-07 17:59 | 55.01678 | 38.21900 | 25187 ft | 384 kts | 329° |
| 2026-05-07 17:59 | 55.03962 | 38.19871 | 25122 ft | 384 kts | 329° |
| 2026-05-07 17:59 | 55.06341 | 38.17756 | 25056 ft | 384 kts | 329° |
| 2026-05-07 18:00 | 55.08721 | 38.15637 | 24984 ft | 383 kts | 329° |
| 2026-05-07 18:00 | 55.11098 | 38.13518 | 24916 ft | 383 kts | 329° |
| 2026-05-07 18:00 | 55.13480 | 38.11417 | 24848 ft | 383 kts | 330° |
| 2026-05-07 18:00 | 55.15898 | 38.09449 | 24757 ft | 384 kts | 332° |
| 2026-05-07 18:01 | 55.18335 | 38.07536 | 24669 ft | 384 kts | 332° |
| 2026-05-07 18:01 | 55.20780 | 38.05624 | 24573 ft | 384 kts | 332° |
| 2026-05-07 18:01 | 55.23215 | 38.03704 | 24482 ft | 383 kts | 332° |
| 2026-05-07 18:01 | 55.25642 | 38.01775 | 24391 ft | 383 kts | 332° |
| 2026-05-07 18:02 | 55.30354 | 37.97996 | 24225 ft | 381 kts | 331° |
| 2026-05-07 18:02 | 55.32627 | 37.96166 | 24130 ft | 379 kts | 331° |
| 2026-05-07 18:02 | 55.34992 | 37.94260 | 24037 ft | 378 kts | 331° |
| 2026-05-07 18:03 | 55.37181 | 37.92493 | 23949 ft | 377 kts | 331° |
| 2026-05-07 18:03 | 55.39638 | 37.90887 | 23797 ft | 383 kts | 345° |
| 2026-05-07 18:03 | 55.42313 | 37.90371 | 23630 ft | 387 kts | 351° |
| 2026-05-07 18:03 | 55.45001 | 37.90001 | 23391 ft | 389 kts | 351° |
| 2026-05-07 18:04 | 55.47690 | 37.89624 | 23133 ft | 385 kts | 351° |
| 2026-05-07 18:04 | 55.50346 | 37.89228 | 22898 ft | 379 kts | 351° |
| 2026-05-07 18:04 | 55.52963 | 37.88813 | 22681 ft | 377 kts | 350° |
| 2026-05-07 18:04 | 55.55584 | 37.88381 | 22469 ft | 377 kts | 350° |
| 2026-05-07 18:05 | 55.58168 | 37.87950 | 22263 ft | 377 kts | 350° |
| 2026-05-07 18:05 | 55.60783 | 37.87512 | 22058 ft | 377 kts | 350° |
| 2026-05-07 18:05 | 55.63398 | 37.87074 | 21849 ft | 378 kts | 350° |
| 2026-05-07 18:05 | 55.66017 | 37.86690 | 21628 ft | 379 kts | 353° |
| 2026-05-07 18:06 | 55.68659 | 37.86611 | 21413 ft | 380 kts | 355° |
| 2026-05-07 18:06 | 55.71277 | 37.86710 | 21176 ft | 375 kts | 2° |
| 2026-05-07 18:06 | 55.73772 | 37.88062 | 20978 ft | 376 kts | 25° |
| 2026-05-07 18:06 | 55.75819 | 37.90869 | 20893 ft | 370 kts | 46° |
| 2026-05-07 18:07 | 55.77259 | 37.94598 | 20876 ft | 365 kts | 64° |
| 2026-05-07 18:07 | 55.78007 | 37.98901 | 20906 ft | 367 kts | 78° |
| 2026-05-07 18:07 | 55.78519 | 38.03368 | 20885 ft | 373 kts | 79° |
| 2026-05-07 18:07 | 55.79025 | 38.07903 | 20885 ft | 373 kts | 79° |
| 2026-05-07 18:08 | 55.79547 | 38.12419 | 20872 ft | 372 kts | 78° |
| 2026-05-07 18:08 | 55.80089 | 38.16907 | 20870 ft | 371 kts | 78° |
| 2026-05-07 18:08 | 55.80647 | 38.21379 | 20865 ft | 370 kts | 77° |
| 2026-05-07 18:08 | 55.81203 | 38.25833 | 20880 ft | 369 kts | 77° |
| 2026-05-07 18:09 | 55.81755 | 38.30300 | 20870 ft | 369 kts | 78° |
| 2026-05-07 18:09 | 55.82315 | 38.34747 | 20872 ft | 369 kts | 74° |
| 2026-05-07 18:09 | 55.83399 | 38.38836 | 20880 ft | 366 kts | 51° |
| 2026-05-07 18:09 | 55.85149 | 38.42059 | 20889 ft | 362 kts | 38° |
| 2026-05-07 18:10 | 55.87074 | 38.44990 | 20877 ft | 364 kts | 37° |
| 2026-05-07 18:10 | 55.88996 | 38.47931 | 20879 ft | 365 kts | 38° |
| 2026-05-07 18:10 | 55.91027 | 38.50601 | 20852 ft | 361 kts | 21° |
| 2026-05-07 18:10 | 55.93391 | 38.51801 | 20878 ft | 350 kts | 359° |
| 2026-05-07 18:11 | 55.95788 | 38.51487 | 20638 ft | 345 kts | 340° |
| 2026-05-07 18:11 | 55.97283 | 38.50565 | 20402 ft | 339 kts | 329° |
| 2026-05-07 18:11 | 55.99809 | 38.47410 | 20014 ft | 328 kts | 314° |
| 2026-05-07 18:11 | 56.01503 | 38.44774 | 19715 ft | 327 kts | 314° |
| 2026-05-07 18:12 | 56.03192 | 38.42065 | 19402 ft | 324 kts | 308° |
| 2026-05-07 18:12 | 56.04378 | 38.38773 | 19090 ft | 310 kts | 287° |
| 2026-05-07 18:12 | 56.04869 | 38.35095 | 18828 ft | 301 kts | 272° |
| 2026-05-07 18:12 | 56.04757 | 38.31392 | 18551 ft | 296 kts | 259° |
| 2026-05-07 18:13 | 56.04346 | 38.27806 | 18285 ft | 294 kts | 257° |
| 2026-05-07 18:13 | 56.03892 | 38.24256 | 17985 ft | 292 kts | 256° |
| 2026-05-07 18:13 | 56.03435 | 38.20709 | 17687 ft | 290 kts | 256° |
| 2026-05-07 18:13 | 56.02991 | 38.17216 | 17408 ft | 288 kts | 256° |
| 2026-05-07 18:14 | 56.02555 | 38.13733 | 17124 ft | 286 kts | 256° |
| 2026-05-07 18:14 | 56.02127 | 38.10268 | 16871 ft | 284 kts | 256° |
| 2026-05-07 18:14 | 56.01704 | 38.06844 | 16609 ft | 282 kts | 256° |
| 2026-05-07 18:14 | 56.01283 | 38.03428 | 16356 ft | 280 kts | 256° |
| 2026-05-07 18:15 | 56.00862 | 38.00032 | 16094 ft | 279 kts | 256° |
| 2026-05-07 18:15 | 56.00554 | 37.96608 | 15840 ft | 280 kts | 268° |
| 2026-05-07 18:15 | 56.00817 | 37.93171 | 15693 ft | 279 kts | 277° |
| 2026-05-07 18:15 | 56.01194 | 37.89763 | 15512 ft | 281 kts | 277° |
| 2026-05-07 18:16 | 56.01568 | 37.86317 | 15340 ft | 285 kts | 277° |
| 2026-05-07 18:16 | 56.01941 | 37.82818 | 15161 ft | 287 kts | 277° |
| 2026-05-07 18:16 | 56.02502 | 37.79388 | 14975 ft | 292 kts | 294° |
| 2026-05-07 18:16 | 56.03762 | 37.76510 | 14755 ft | 300 kts | 311° |
| 2026-05-07 18:17 | 56.05553 | 37.74466 | 14501 ft | 311 kts | 328° |
| 2026-05-07 18:17 | 56.07507 | 37.72870 | 14232 ft | 313 kts | 329° |
| 2026-05-07 18:17 | 56.09500 | 37.71260 | 13959 ft | 314 kts | 329° |
| 2026-05-07 18:17 | 56.11492 | 37.69632 | 13677 ft | 314 kts | 329° |
| 2026-05-07 18:18 | 56.13610 | 37.68539 | 13329 ft | 325 kts | 352° |
| 2026-05-07 18:18 | 56.15870 | 37.68765 | 13094 ft | 324 kts | 360° |
| 2026-05-07 18:18 | 56.18105 | 37.69158 | 12780 ft | 322 kts | 0° |
| 2026-05-07 18:18 | 56.20327 | 37.69546 | 12487 ft | 319 kts | 359° |
| 2026-05-07 18:19 | 56.22523 | 37.69905 | 12214 ft | 316 kts | 359° |
| 2026-05-07 18:19 | 56.24696 | 37.70244 | 11935 ft | 313 kts | 359° |
| 2026-05-07 18:19 | 56.26855 | 37.70576 | 11673 ft | 310 kts | 359° |
| 2026-05-07 18:19 | 56.28978 | 37.70610 | 11380 ft | 298 kts | 341° |
| 2026-05-07 18:20 | 56.30780 | 37.69199 | 11274 ft | 273 kts | 318° |
| 2026-05-07 18:20 | 56.32152 | 37.67039 | 11039 ft | 260 kts | 304° |
| 2026-05-07 18:20 | 56.33293 | 37.64577 | 10822 ft | 254 kts | 301° |
| 2026-05-07 18:20 | 56.34396 | 37.62113 | 10633 ft | 251 kts | 300° |
| 2026-05-07 18:21 | 56.35497 | 37.59672 | 10411 ft | 249 kts | 300° |
| 2026-05-07 18:21 | 56.36238 | 37.58047 | 10263 ft | 248 kts | 300° |
| 2026-05-07 18:21 | 56.37669 | 37.54892 | 10002 ft | 242 kts | 297° |
| 2026-05-07 18:21 | 56.38598 | 37.52440 | 9865 ft | 233 kts | 294° |
| 2026-05-07 18:22 | 56.39193 | 37.50788 | 9776 ft | 230 kts | 294° |
| 2026-05-07 18:22 | 56.39768 | 37.49185 | 9683 ft | 229 kts | 294° |
| 2026-05-07 18:22 | 56.40795 | 37.46035 | 9454 ft | 220 kts | 278° |
| 2026-05-07 18:22 | 56.40732 | 37.43428 | 9256 ft | 207 kts | 248° |
| 2026-05-07 18:23 | 56.40054 | 37.41148 | 9083 ft | 209 kts | 233° |
| 2026-05-07 18:23 | 56.38980 | 37.39351 | 8913 ft | 215 kts | 215° |
| 2026-05-07 18:23 | 56.37597 | 37.38220 | 8757 ft | 220 kts | 208° |
| 2026-05-07 18:23 | 56.36157 | 37.37173 | 8582 ft | 221 kts | 208° |
| 2026-05-07 18:24 | 56.34658 | 37.36554 | 8220 ft | 238 kts | 183° |
| 2026-05-07 18:24 | 56.33043 | 37.37602 | 7911 ft | 256 kts | 159° |
| 2026-05-07 18:24 | 56.31578 | 37.39564 | 7570 ft | 266 kts | 147° |
| 2026-05-07 18:24 | 56.30197 | 37.41813 | 7266 ft | 268 kts | 145° |
| 2026-05-07 18:25 | 56.28827 | 37.44095 | 6966 ft | 269 kts | 145° |
| 2026-05-07 18:25 | 56.27445 | 37.46374 | 6664 ft | 270 kts | 146° |
| 2026-05-07 18:25 | 56.26049 | 37.48647 | 6359 ft | 271 kts | 146° |
| 2026-05-07 18:25 | 56.24645 | 37.50911 | 6026 ft | 268 kts | 144° |
| 2026-05-07 18:26 | 56.23273 | 37.53109 | 5794 ft | 262 kts | 144° |
| 2026-05-07 18:26 | 56.21892 | 37.55304 | 5448 ft | 265 kts | 144° |
| 2026-05-07 18:26 | 56.20520 | 37.57482 | 5152 ft | 262 kts | 143° |
| 2026-05-07 18:26 | 56.19188 | 37.59664 | 4951 ft | 255 kts | 140° |
| 2026-05-07 18:27 | 56.17960 | 37.61916 | 4823 ft | 250 kts | 138° |
| 2026-05-07 18:27 | 56.16761 | 37.64154 | 4702 ft | 248 kts | 138° |
| 2026-05-07 18:27 | 56.15569 | 37.66369 | 4574 ft | 246 kts | 138° |
| 2026-05-07 18:27 | 56.14390 | 37.68546 | 4468 ft | 244 kts | 138° |
| 2026-05-07 18:28 | 56.13194 | 37.70743 | 4340 ft | 242 kts | 138° |
| 2026-05-07 18:28 | 56.12048 | 37.72844 | 4223 ft | 235 kts | 138° |
| 2026-05-07 18:28 | 56.10989 | 37.74784 | 4121 ft | 229 kts | 138° |
| 2026-05-07 18:28 | 56.09834 | 37.76642 | 3988 ft | 218 kts | 156° |
| 2026-05-07 18:29 | 56.08466 | 37.77138 | 3896 ft | 195 kts | 189° |
| 2026-05-07 18:29 | 56.07163 | 37.76682 | 3741 ft | 189 kts | 201° |
| 2026-05-07 18:29 | 56.05906 | 37.75936 | 3596 ft | 191 kts | 201° |
| 2026-05-07 18:29 | 56.04631 | 37.75191 | 3457 ft | 195 kts | 201° |
| 2026-05-07 18:30 | 56.03350 | 37.74450 | 3306 ft | 196 kts | 200° |
| 2026-05-07 18:30 | 56.02186 | 37.73340 | 3110 ft | 186 kts | 230° |
| 2026-05-07 18:30 | 56.01625 | 37.71665 | 3018 ft | 176 kts | 250° |
| 2026-05-07 18:30 | 56.01308 | 37.69555 | 2885 ft | 175 kts | 255° |
| 2026-05-07 18:31 | 56.01008 | 37.67502 | 2734 ft | 167 kts | 256° |
| 2026-05-07 18:31 | 56.00732 | 37.65531 | 2581 ft | 159 kts | 256° |
| 2026-05-07 18:31 | 56.00456 | 37.63606 | 2530 ft | 161 kts | 255° |
| 2026-05-07 18:31 | 56.00168 | 37.61676 | 2495 ft | 159 kts | 255° |
| 2026-05-07 18:32 | 55.99883 | 37.59784 | 2363 ft | 155 kts | 255° |
| 2026-05-07 18:32 | 55.99614 | 37.57997 | 2162 ft | 146 kts | 255° |
| 2026-05-07 18:32 | 55.99391 | 37.56515 | 2019 ft | 142 kts | 254° |
| 2026-05-07 18:32 | 55.99126 | 37.54758 | 1826 ft | 146 kts | 254° |
| 2026-05-07 18:33 | 55.98879 | 37.53113 | 1635 ft | 147 kts | 254° |
| 2026-05-07 18:33 | 55.98626 | 37.51432 | 1446 ft | 148 kts | 255° |
| 2026-05-07 18:33 | 55.98359 | 37.49652 | 1263 ft | 151 kts | 255° |
| 2026-05-07 18:33 | 55.98089 | 37.47843 | 1080 ft | 154 kts | 255° |
| 2026-05-07 18:34 | 55.97808 | 37.45980 | 855 ft | 155 kts | 255° |
| 2026-05-07 18:34 | 55.97533 | 37.44126 | 664 ft | 154 kts | 254° |
| 2026-05-07 18:34 | 55.97278 | 37.42414 | 639 ft | 123 kts | 255° |
| 2026-05-07 18:34 | 55.97097 | 37.41197 | 641 ft | 79 kts | 255° |
| 2026-05-07 18:35 | 55.96993 | 37.40501 | 641 ft | 43 kts | 255° |
| 2026-05-07 18:35 | 55.96949 | 37.40202 | 640 ft | 17 kts | 256° |
| 2026-05-07 18:35 | 55.96987 | 37.40043 | 639 ft | 9 kts | 344° |
| 2026-05-07 18:35 | 55.97050 | 37.40013 | 638 ft | 10 kts | 345° |
| 2026-05-07 18:36 | 55.97115 | 37.39981 | 638 ft | 11 kts | 345° |
| 2026-05-07 18:36 | 55.97207 | 37.39937 | 639 ft | 17 kts | 345° |
| 2026-05-07 18:36 | 55.97289 | 37.39898 | 637 ft | 11 kts | 345° |
| 2026-05-07 18:36 | 55.97348 | 37.39945 | 643 ft | 10 kts | 65° |
| 2026-05-07 18:37 | 55.97368 | 37.40067 | 640 ft | 10 kts | 75° |
| 2026-05-07 18:37 | 55.97385 | 37.40187 | 640 ft | 10 kts | 75° |
| 2026-05-07 18:37 | 55.97405 | 37.40316 | 641 ft | 12 kts | 75° |
| 2026-05-07 18:37 | 55.97431 | 37.40485 | 641 ft | 15 kts | 74° |
| 2026-05-07 18:38 | 55.97457 | 37.40660 | 638 ft | 14 kts | 76° |
| 2026-05-07 18:38 | 55.97481 | 37.40829 | 641 ft | 14 kts | 75° |
| 2026-05-07 18:38 | 55.97506 | 37.40989 | 645 ft | 13 kts | 75° |
| 2026-05-07 18:38 | 55.97529 | 37.41144 | 638 ft | 13 kts | 75° |
| 2026-05-07 18:39 | 55.97552 | 37.41295 | 641 ft | 12 kts | 75° |
| 2026-05-07 18:39 | 55.97574 | 37.41442 | 638 ft | 12 kts | 75° |
| 2026-05-07 18:39 | 55.97595 | 37.41585 | 638 ft | 12 kts | 75° |
| 2026-05-07 18:39 | 55.97616 | 37.41730 | 639 ft | 13 kts | 75° |
| 2026-05-07 18:40 | 55.97639 | 37.41881 | 641 ft | 12 kts | 75° |
| 2026-05-07 18:40 | 55.97661 | 37.42026 | 642 ft | 12 kts | 75° |
| 2026-05-07 18:40 | 55.97712 | 37.42123 | 640 ft | 12 kts | 359° |
| 2026-05-07 18:40 | 55.97791 | 37.42089 | 640 ft | 12 kts | 345° |
| 2026-05-07 18:41 | 55.97867 | 37.42051 | 638 ft | 11 kts | 345° |
| 2026-05-07 18:41 | 55.97919 | 37.42023 | 638 ft | 6 kts | 331° |
| 2026-05-07 18:41 | 55.97928 | 37.41949 | 638 ft | 7 kts | 258° |
| 2026-05-07 18:41 | 55.97922 | 37.41900 | 640 ft | 3 kts | 255° |
| 2026-05-07 18:42 | 55.97921 | 37.41894 | 641 ft | 0 kts | 255° |